sensor_id;sensor_type;location;lat;lon;timestamp;temperature;humidity
10583;DHT22;33679;51.218;6.786;2023-12-20T00:01:19;11.30;99.90
10583;DHT22;33679;51.218;6.786;2023-12-20T00:03:51;11.30;99.90
10583;DHT22;33679;51.218;6.786;2023-12-20T00:06:25;11.30;99.90
10583;DHT22;33679;51.218;6.786;2023-12-20T00:08:58;11.40;99.90
10583;DHT22;33679;51.218;6.786;2023-12-20T00:11:31;11.30;99.90
10583;DHT22;33679;51.218;6.786;2023-12-20T00:14:03;11.40;99.90
10583;DHT22;33679;51.218;6.786;2023-12-20T00:16:41;11.30;99.90
10583;DHT22;33679;51.218;6.786;2023-12-20T00:19:20;11.40;99.90
10583;DHT22;33679;51.218;6.786;2023-12-20T00:21:56;11.40;99.90
10583;DHT22;33679;51.218;6.786;2023-12-20T00:24:32;11.40;99.90
10583;DHT22;33679;51.218;6.786;2023-12-20T00:27:06;11.40;99.90
10583;DHT22;33679;51.218;6.786;2023-12-20T00:29:39;11.50;99.90
10583;DHT22;33679;51.218;6.786;2023-12-20T00:32:16;11.50;99.90
10583;DHT22;33679;51.218;6.786;2023-12-20T00:34:49;11.50;99.90
10583;DHT22;33679;51.218;6.786;2023-12-20T00:37:23;11.50;99.90
10583;DHT22;33679;51.218;6.786;2023-12-20T00:39:56;11.50;99.90
10583;DHT22;33679;51.218;6.786;2023-12-20T00:42:28;11.50;99.90
10583;DHT22;33679;51.218;6.786;2023-12-20T00:45:01;11.50;99.90
10583;DHT22;33679;51.218;6.786;2023-12-20T00:47:33;11.50;99.90
10583;DHT22;33679;51.218;6.786;2023-12-20T00:50:07;11.50;99.90
10583;DHT22;33679;51.218;6.786;2023-12-20T00:52:41;11.50;99.90
10583;DHT22;33679;51.218;6.786;2023-12-20T00:55:29;11.50;99.90
10583;DHT22;33679;51.218;6.786;2023-12-20T00:58:16;11.50;99.90
10583;DHT22;33679;51.218;6.786;2023-12-20T01:00:49;11.50;99.90
10583;DHT22;33679;51.218;6.786;2023-12-20T01:03:22;11.60;99.90
10583;DHT22;33679;51.218;6.786;2023-12-20T01:05:54;11.60;99.90
10583;DHT22;33679;51.218;6.786;2023-12-20T01:08:30;11.50;99.90
10583;DHT22;33679;51.218;6.786;2023-12-20T01:11:07;11.50;99.90
10583;DHT22;33679;51.218;6.786;2023-12-20T01:13:40;11.40;99.90
10583;DHT22;33679;51.218;6.786;2023-12-20T01:16:13;11.40;99.90
10583;DHT22;33679;51.218;6.786;2023-12-20T01:18:45;11.40;99.90
10583;DHT22;33679;51.218;6.786;2023-12-20T01:21:17;11.40;99.90
10583;DHT22;33679;51.218;6.786;2023-12-20T01:23:51;11.40;99.90
10583;DHT22;33679;51.218;6.786;2023-12-20T01:26:24;11.30;99.90
10583;DHT22;33679;51.218;6.786;2023-12-20T01:28:56;11.30;99.90
10583;DHT22;33679;51.218;6.786;2023-12-20T01:31:28;11.30;99.90
10583;DHT22;33679;51.218;6.786;2023-12-20T01:34:03;11.30;99.90
10583;DHT22;33679;51.218;6.786;2023-12-20T01:36:36;11.30;99.90
10583;DHT22;33679;51.218;6.786;2023-12-20T01:39:10;11.20;99.90
10583;DHT22;33679;51.218;6.786;2023-12-20T01:41:42;11.20;99.90
10583;DHT22;33679;51.218;6.786;2023-12-20T01:44:16;11.20;99.90
10583;DHT22;33679;51.218;6.786;2023-12-20T01:46:49;11.30;99.90
10583;DHT22;33679;51.218;6.786;2023-12-20T01:49:23;11.20;99.90
10583;DHT22;33679;51.218;6.786;2023-12-20T01:51:56;11.10;99.90
10583;DHT22;33679;51.218;6.786;2023-12-20T01:54:30;11.10;99.90
10583;DHT22;33679;51.218;6.786;2023-12-20T01:57:04;11.00;99.90
10583;DHT22;33679;51.218;6.786;2023-12-20T01:59:39;11.00;99.90
10583;DHT22;33679;51.218;6.786;2023-12-20T02:02:12;11.10;99.90
10583;DHT22;33679;51.218;6.786;2023-12-20T02:04:46;11.00;99.90
10583;DHT22;33679;51.218;6.786;2023-12-20T02:07:24;11.00;99.90
10583;DHT22;33679;51.218;6.786;2023-12-20T02:09:59;10.90;99.90
10583;DHT22;33679;51.218;6.786;2023-12-20T02:12:39;10.90;99.90
10583;DHT22;33679;51.218;6.786;2023-12-20T02:15:12;10.90;99.90
10583;DHT22;33679;51.218;6.786;2023-12-20T02:17:49;10.80;99.90
10583;DHT22;33679;51.218;6.786;2023-12-20T02:20:24;10.80;99.90
10583;DHT22;33679;51.218;6.786;2023-12-20T02:22:58;10.80;99.90
10583;DHT22;33679;51.218;6.786;2023-12-20T02:25:32;10.80;99.90
10583;DHT22;33679;51.218;6.786;2023-12-20T02:28:05;10.80;99.90
10583;DHT22;33679;51.218;6.786;2023-12-20T02:30:40;10.70;99.90
10583;DHT22;33679;51.218;6.786;2023-12-20T02:33:14;10.70;99.90
10583;DHT22;33679;51.218;6.786;2023-12-20T02:35:49;10.60;99.90
10583;DHT22;33679;51.218;6.786;2023-12-20T02:38:25;10.60;99.90
10583;DHT22;33679;51.218;6.786;2023-12-20T02:40:58;10.60;99.90
10583;DHT22;33679;51.218;6.786;2023-12-20T02:43:30;10.70;99.90
10583;DHT22;33679;51.218;6.786;2023-12-20T02:46:03;10.70;99.90
10583;DHT22;33679;51.218;6.786;2023-12-20T02:48:35;10.70;99.90
10583;DHT22;33679;51.218;6.786;2023-12-20T02:51:08;10.70;99.90
10583;DHT22;33679;51.218;6.786;2023-12-20T02:53:42;10.70;99.90
10583;DHT22;33679;51.218;6.786;2023-12-20T02:56:14;10.60;99.90
10583;DHT22;33679;51.218;6.786;2023-12-20T02:58:48;10.60;99.90
10583;DHT22;33679;51.218;6.786;2023-12-20T03:01:21;10.60;99.90
10583;DHT22;33679;51.218;6.786;2023-12-20T03:03:53;10.60;99.90
10583;DHT22;33679;51.218;6.786;2023-12-20T03:06:26;10.60;99.90
10583;DHT22;33679;51.218;6.786;2023-12-20T03:09:02;10.60;99.90
10583;DHT22;33679;51.218;6.786;2023-12-20T03:11:37;10.60;99.90
10583;DHT22;33679;51.218;6.786;2023-12-20T03:14:11;10.60;99.90
10583;DHT22;33679;51.218;6.786;2023-12-20T03:16:47;10.50;99.90
10583;DHT22;33679;51.218;6.786;2023-12-20T03:19:19;10.50;99.90
10583;DHT22;33679;51.218;6.786;2023-12-20T03:21:51;10.50;99.90
10583;DHT22;33679;51.218;6.786;2023-12-20T03:24:25;10.50;99.90
10583;DHT22;33679;51.218;6.786;2023-12-20T03:26:58;10.60;99.90
10583;DHT22;33679;51.218;6.786;2023-12-20T03:29:31;10.60;99.90
10583;DHT22;33679;51.218;6.786;2023-12-20T03:32:03;10.50;99.90
10583;DHT22;33679;51.218;6.786;2023-12-20T03:34:36;10.50;99.90
10583;DHT22;33679;51.218;6.786;2023-12-20T03:37:09;10.50;99.90
10583;DHT22;33679;51.218;6.786;2023-12-20T03:39:43;10.40;99.90
10583;DHT22;33679;51.218;6.786;2023-12-20T03:42:15;10.50;99.90
10583;DHT22;33679;51.218;6.786;2023-12-20T03:44:47;10.50;99.90
10583;DHT22;33679;51.218;6.786;2023-12-20T03:47:21;10.50;99.90
10583;DHT22;33679;51.218;6.786;2023-12-20T03:49:54;10.40;99.90
10583;DHT22;33679;51.218;6.786;2023-12-20T03:52:26;10.40;99.90
10583;DHT22;33679;51.218;6.786;2023-12-20T03:55:00;10.30;99.90
10583;DHT22;33679;51.218;6.786;2023-12-20T03:57:32;10.40;99.90
10583;DHT22;33679;51.218;6.786;2023-12-20T04:00:07;10.30;99.90
10583;DHT22;33679;51.218;6.786;2023-12-20T04:02:43;10.20;99.90
10583;DHT22;33679;51.218;6.786;2023-12-20T04:05:16;10.30;99.90
10583;DHT22;33679;51.218;6.786;2023-12-20T04:07:48;10.30;99.90
10583;DHT22;33679;51.218;6.786;2023-12-20T04:10:22;10.20;99.90
10583;DHT22;33679;51.218;6.786;2023-12-20T04:12:55;10.20;99.90
10583;DHT22;33679;51.218;6.786;2023-12-20T04:15:28;10.10;99.90
10583;DHT22;33679;51.218;6.786;2023-12-20T04:18:05;10.10;99.90
10583;DHT22;33679;51.218;6.786;2023-12-20T04:20:38;10.00;99.90
10583;DHT22;33679;51.218;6.786;2023-12-20T04:23:10;10.00;99.90
10583;DHT22;33679;51.218;6.786;2023-12-20T04:25:44;10.10;99.90
10583;DHT22;33679;51.218;6.786;2023-12-20T04:28:17;10.00;99.90
10583;DHT22;33679;51.218;6.786;2023-12-20T04:30:50;10.00;99.90
10583;DHT22;33679;51.218;6.786;2023-12-20T04:33:22;10.00;99.90
10583;DHT22;33679;51.218;6.786;2023-12-20T04:35:55;10.00;99.90
10583;DHT22;33679;51.218;6.786;2023-12-20T04:38:28;10.00;99.90
10583;DHT22;33679;51.218;6.786;2023-12-20T04:41:02;9.90;99.90
10583;DHT22;33679;51.218;6.786;2023-12-20T04:43:35;10.00;99.90
10583;DHT22;33679;51.218;6.786;2023-12-20T04:46:07;9.90;99.90
10583;DHT22;33679;51.218;6.786;2023-12-20T04:48:40;9.80;99.90
10583;DHT22;33679;51.218;6.786;2023-12-20T04:51:12;9.90;99.90
10583;DHT22;33679;51.218;6.786;2023-12-20T04:53:44;9.80;99.90
10583;DHT22;33679;51.218;6.786;2023-12-20T04:56:19;9.80;99.90
10583;DHT22;33679;51.218;6.786;2023-12-20T04:58:51;9.80;99.90
10583;DHT22;33679;51.218;6.786;2023-12-20T05:01:24;9.80;99.90
10583;DHT22;33679;51.218;6.786;2023-12-20T05:03:57;9.90;99.90
10583;DHT22;33679;51.218;6.786;2023-12-20T05:06:29;9.90;99.90
10583;DHT22;33679;51.218;6.786;2023-12-20T05:09:01;10.00;99.90
10583;DHT22;33679;51.218;6.786;2023-12-20T05:11:35;9.90;99.90
10583;DHT22;33679;51.218;6.786;2023-12-20T05:14:07;9.90;99.90
10583;DHT22;33679;51.218;6.786;2023-12-20T05:16:40;9.90;99.90
10583;DHT22;33679;51.218;6.786;2023-12-20T05:19:12;9.90;99.90
10583;DHT22;33679;51.218;6.786;2023-12-20T05:21:45;9.90;99.90
10583;DHT22;33679;51.218;6.786;2023-12-20T05:24:17;9.90;99.90
10583;DHT22;33679;51.218;6.786;2023-12-20T05:26:55;9.90;99.90
10583;DHT22;33679;51.218;6.786;2023-12-20T05:29:27;9.80;99.90
10583;DHT22;33679;51.218;6.786;2023-12-20T05:31:59;9.80;99.90
10583;DHT22;33679;51.218;6.786;2023-12-20T05:34:32;9.80;99.90
10583;DHT22;33679;51.218;6.786;2023-12-20T05:37:05;9.80;99.90
10583;DHT22;33679;51.218;6.786;2023-12-20T05:39:38;9.80;99.90
10583;DHT22;33679;51.218;6.786;2023-12-20T05:42:12;9.80;99.90
10583;DHT22;33679;51.218;6.786;2023-12-20T05:44:44;9.70;99.90
10583;DHT22;33679;51.218;6.786;2023-12-20T05:47:16;9.70;99.90
10583;DHT22;33679;51.218;6.786;2023-12-20T05:49:49;9.70;99.90
10583;DHT22;33679;51.218;6.786;2023-12-20T05:52:22;9.70;99.90
10583;DHT22;33679;51.218;6.786;2023-12-20T05:54:54;9.70;99.90
10583;DHT22;33679;51.218;6.786;2023-12-20T05:57:30;9.70;99.90
10583;DHT22;33679;51.218;6.786;2023-12-20T06:00:07;9.70;99.90
10583;DHT22;33679;51.218;6.786;2023-12-20T06:02:46;9.70;99.90
10583;DHT22;33679;51.218;6.786;2023-12-20T06:05:19;9.70;99.90
10583;DHT22;33679;51.218;6.786;2023-12-20T06:07:52;9.70;99.90
10583;DHT22;33679;51.218;6.786;2023-12-20T06:10:25;9.80;99.90
10583;DHT22;33679;51.218;6.786;2023-12-20T06:12:59;9.80;99.90
10583;DHT22;33679;51.218;6.786;2023-12-20T06:15:31;9.90;99.90
10583;DHT22;33679;51.218;6.786;2023-12-20T06:18:04;9.90;99.90
10583;DHT22;33679;51.218;6.786;2023-12-20T06:20:37;10.00;99.90
10583;DHT22;33679;51.218;6.786;2023-12-20T06:23:10;10.00;99.90
10583;DHT22;33679;51.218;6.786;2023-12-20T06:25:42;10.00;99.90
10583;DHT22;33679;51.218;6.786;2023-12-20T06:28:16;10.00;99.90
10583;DHT22;33679;51.218;6.786;2023-12-20T06:30:52;9.90;99.90
10583;DHT22;33679;51.218;6.786;2023-12-20T06:33:25;9.90;99.90
10583;DHT22;33679;51.218;6.786;2023-12-20T06:35:59;9.90;99.90
10583;DHT22;33679;51.218;6.786;2023-12-20T06:38:32;9.90;99.90
10583;DHT22;33679;51.218;6.786;2023-12-20T06:41:05;9.90;99.90
10583;DHT22;33679;51.218;6.786;2023-12-20T06:43:54;9.90;99.90
10583;DHT22;33679;51.218;6.786;2023-12-20T06:46:46;9.90;99.90
10583;DHT22;33679;51.218;6.786;2023-12-20T06:49:18;9.90;99.90
10583;DHT22;33679;51.218;6.786;2023-12-20T06:51:51;9.90;99.90
10583;DHT22;33679;51.218;6.786;2023-12-20T06:54:24;9.90;99.90
10583;DHT22;33679;51.218;6.786;2023-12-20T06:56:57;9.90;99.90
10583;DHT22;33679;51.218;6.786;2023-12-20T06:59:31;10.00;99.90
10583;DHT22;33679;51.218;6.786;2023-12-20T07:02:04;10.10;99.90
10583;DHT22;33679;51.218;6.786;2023-12-20T07:04:41;10.00;99.90
10583;DHT22;33679;51.218;6.786;2023-12-20T07:07:16;10.10;99.90
10583;DHT22;33679;51.218;6.786;2023-12-20T07:09:48;10.10;99.90
10583;DHT22;33679;51.218;6.786;2023-12-20T07:12:21;10.10;99.90
10583;DHT22;33679;51.218;6.786;2023-12-20T07:14:54;10.10;99.90
10583;DHT22;33679;51.218;6.786;2023-12-20T07:17:27;10.10;99.90
10583;DHT22;33679;51.218;6.786;2023-12-20T07:20:00;10.10;99.90
10583;DHT22;33679;51.218;6.786;2023-12-20T07:22:34;10.20;99.90
10583;DHT22;33679;51.218;6.786;2023-12-20T07:25:10;10.20;99.90
10583;DHT22;33679;51.218;6.786;2023-12-20T07:27:42;10.10;99.90
10583;DHT22;33679;51.218;6.786;2023-12-20T07:30:17;10.10;99.90
10583;DHT22;33679;51.218;6.786;2023-12-20T07:32:49;10.10;99.90
10583;DHT22;33679;51.218;6.786;2023-12-20T07:35:33;10.10;99.90
10583;DHT22;33679;51.218;6.786;2023-12-20T07:38:17;10.00;99.90
10583;DHT22;33679;51.218;6.786;2023-12-20T07:40:52;10.10;99.90
10583;DHT22;33679;51.218;6.786;2023-12-20T07:43:32;10.00;99.90
10583;DHT22;33679;51.218;6.786;2023-12-20T07:46:08;10.10;99.90
10583;DHT22;33679;51.218;6.786;2023-12-20T07:48:41;10.10;99.90
10583;DHT22;33679;51.218;6.786;2023-12-20T07:51:14;10.10;99.90
10583;DHT22;33679;51.218;6.786;2023-12-20T07:53:51;10.10;99.90
10583;DHT22;33679;51.218;6.786;2023-12-20T07:56:23;10.10;99.90
10583;DHT22;33679;51.218;6.786;2023-12-20T07:58:55;10.10;99.90
10583;DHT22;33679;51.218;6.786;2023-12-20T08:01:35;10.20;99.90
10583;DHT22;33679;51.218;6.786;2023-12-20T08:04:14;10.20;99.90
10583;DHT22;33679;51.218;6.786;2023-12-20T08:06:51;10.20;99.90
10583;DHT22;33679;51.218;6.786;2023-12-20T08:09:23;10.20;99.90
10583;DHT22;33679;51.218;6.786;2023-12-20T08:11:56;10.20;99.90
10583;DHT22;33679;51.218;6.786;2023-12-20T08:14:32;10.20;99.90
10583;DHT22;33679;51.218;6.786;2023-12-20T08:17:06;10.20;99.90
10583;DHT22;33679;51.218;6.786;2023-12-20T08:19:42;10.20;99.90
10583;DHT22;33679;51.218;6.786;2023-12-20T08:22:15;10.30;99.90
10583;DHT22;33679;51.218;6.786;2023-12-20T08:24:55;10.30;99.90
10583;DHT22;33679;51.218;6.786;2023-12-20T08:27:29;10.30;99.90
10583;DHT22;33679;51.218;6.786;2023-12-20T08:30:03;10.30;99.90
10583;DHT22;33679;51.218;6.786;2023-12-20T08:32:39;10.30;99.90
10583;DHT22;33679;51.218;6.786;2023-12-20T08:35:12;10.30;99.90
10583;DHT22;33679;51.218;6.786;2023-12-20T08:37:52;10.30;99.90
10583;DHT22;33679;51.218;6.786;2023-12-20T08:40:25;10.30;99.90
10583;DHT22;33679;51.218;6.786;2023-12-20T08:42:58;10.30;99.90
10583;DHT22;33679;51.218;6.786;2023-12-20T08:45:31;10.30;99.90
10583;DHT22;33679;51.218;6.786;2023-12-20T08:48:06;10.30;99.90
10583;DHT22;33679;51.218;6.786;2023-12-20T08:50:41;10.30;99.90
10583;DHT22;33679;51.218;6.786;2023-12-20T08:53:14;10.30;99.90
10583;DHT22;33679;51.218;6.786;2023-12-20T08:55:47;10.30;99.90
10583;DHT22;33679;51.218;6.786;2023-12-20T08:58:20;10.30;99.90
10583;DHT22;33679;51.218;6.786;2023-12-20T09:00:54;10.20;99.90
10583;DHT22;33679;51.218;6.786;2023-12-20T09:03:28;10.30;99.90
10583;DHT22;33679;51.218;6.786;2023-12-20T09:06:01;10.20;99.90
10583;DHT22;33679;51.218;6.786;2023-12-20T09:08:41;10.10;99.90
10583;DHT22;33679;51.218;6.786;2023-12-20T09:11:15;10.00;99.90
10583;DHT22;33679;51.218;6.786;2023-12-20T09:13:52;10.10;99.90
10583;DHT22;33679;51.218;6.786;2023-12-20T09:16:24;10.10;99.90
10583;DHT22;33679;51.218;6.786;2023-12-20T09:18:59;10.20;99.90
10583;DHT22;33679;51.218;6.786;2023-12-20T09:21:33;10.20;99.90
10583;DHT22;33679;51.218;6.786;2023-12-20T09:24:09;10.10;99.90
10583;DHT22;33679;51.218;6.786;2023-12-20T09:26:43;10.10;99.90
10583;DHT22;33679;51.218;6.786;2023-12-20T09:29:18;10.10;99.90
10583;DHT22;33679;51.218;6.786;2023-12-20T09:31:50;10.10;99.90
10583;DHT22;33679;51.218;6.786;2023-12-20T09:34:28;10.20;99.90
10583;DHT22;33679;51.218;6.786;2023-12-20T09:37:01;10.10;99.90
10583;DHT22;33679;51.218;6.786;2023-12-20T09:39:34;10.20;99.90
10583;DHT22;33679;51.218;6.786;2023-12-20T09:42:08;10.20;99.90
10583;DHT22;33679;51.218;6.786;2023-12-20T09:44:44;10.30;99.90
10583;DHT22;33679;51.218;6.786;2023-12-20T09:47:18;10.30;99.90
10583;DHT22;33679;51.218;6.786;2023-12-20T09:49:54;10.30;99.90
10583;DHT22;33679;51.218;6.786;2023-12-20T09:52:29;10.30;99.90
10583;DHT22;33679;51.218;6.786;2023-12-20T09:55:04;10.40;99.90
10583;DHT22;33679;51.218;6.786;2023-12-20T09:57:38;10.40;99.90
10583;DHT22;33679;51.218;6.786;2023-12-20T10:00:18;10.40;99.90
10583;DHT22;33679;51.218;6.786;2023-12-20T10:02:58;10.40;99.90
10583;DHT22;33679;51.218;6.786;2023-12-20T10:05:33;10.40;99.90
10583;DHT22;33679;51.218;6.786;2023-12-20T10:08:16;10.40;99.90
10583;DHT22;33679;51.218;6.786;2023-12-20T10:10:49;10.30;99.90
10583;DHT22;33679;51.218;6.786;2023-12-20T10:13:23;10.30;99.90
10583;DHT22;33679;51.218;6.786;2023-12-20T10:15:56;10.30;99.90
10583;DHT22;33679;51.218;6.786;2023-12-20T10:18:30;10.30;99.90
10583;DHT22;33679;51.218;6.786;2023-12-20T10:21:06;10.30;99.90
10583;DHT22;33679;51.218;6.786;2023-12-20T10:23:38;10.40;99.90
10583;DHT22;33679;51.218;6.786;2023-12-20T10:26:19;10.30;99.90
10583;DHT22;33679;51.218;6.786;2023-12-20T10:28:54;10.40;99.90
10583;DHT22;33679;51.218;6.786;2023-12-20T10:31:55;10.30;99.90
10583;DHT22;33679;51.218;6.786;2023-12-20T10:34:33;10.30;99.90
10583;DHT22;33679;51.218;6.786;2023-12-20T10:37:26;10.40;99.90
10583;DHT22;33679;51.218;6.786;2023-12-20T10:40:03;10.40;99.90
10583;DHT22;33679;51.218;6.786;2023-12-20T10:42:38;10.40;99.90
10583;DHT22;33679;51.218;6.786;2023-12-20T10:45:12;10.40;99.90
10583;DHT22;33679;51.218;6.786;2023-12-20T10:47:47;10.50;99.90
10583;DHT22;33679;51.218;6.786;2023-12-20T10:50:21;10.60;99.90
10583;DHT22;33679;51.218;6.786;2023-12-20T10:52:57;10.60;99.90
10583;DHT22;33679;51.218;6.786;2023-12-20T10:55:36;10.60;99.90
10583;DHT22;33679;51.218;6.786;2023-12-20T10:58:09;10.60;99.90
10583;DHT22;33679;51.218;6.786;2023-12-20T11:00:44;10.60;99.90
10583;DHT22;33679;51.218;6.786;2023-12-20T11:03:20;10.60;99.90
10583;DHT22;33679;51.218;6.786;2023-12-20T11:06:02;10.50;99.90
10583;DHT22;33679;51.218;6.786;2023-12-20T11:08:46;10.60;99.90
10583;DHT22;33679;51.218;6.786;2023-12-20T11:11:29;10.60;99.90
10583;DHT22;33679;51.218;6.786;2023-12-20T11:14:06;10.60;99.90
10583;DHT22;33679;51.218;6.786;2023-12-20T11:16:41;10.60;99.90
10583;DHT22;33679;51.218;6.786;2023-12-20T11:19:14;10.60;99.90
10583;DHT22;33679;51.218;6.786;2023-12-20T11:21:46;10.60;99.90
10583;DHT22;33679;51.218;6.786;2023-12-20T11:24:23;10.50;99.90
10583;DHT22;33679;51.218;6.786;2023-12-20T11:27:05;10.60;99.90
10583;DHT22;33679;51.218;6.786;2023-12-20T11:29:55;10.50;99.90
10583;DHT22;33679;51.218;6.786;2023-12-20T11:32:34;10.50;99.90
10583;DHT22;33679;51.218;6.786;2023-12-20T11:35:19;10.50;99.90
10583;DHT22;33679;51.218;6.786;2023-12-20T11:37:54;10.50;99.90
10583;DHT22;33679;51.218;6.786;2023-12-20T11:40:53;10.50;99.90
10583;DHT22;33679;51.218;6.786;2023-12-20T11:43:45;10.50;99.90
10583;DHT22;33679;51.218;6.786;2023-12-20T11:46:19;10.50;99.90
10583;DHT22;33679;51.218;6.786;2023-12-20T11:49:03;10.50;99.90
10583;DHT22;33679;51.218;6.786;2023-12-20T11:51:41;10.50;99.90
10583;DHT22;33679;51.218;6.786;2023-12-20T11:54:18;10.60;99.90
10583;DHT22;33679;51.218;6.786;2023-12-20T11:56:52;10.60;99.90
10583;DHT22;33679;51.218;6.786;2023-12-20T11:59:26;10.60;99.90
10583;DHT22;33679;51.218;6.786;2023-12-20T12:02:00;10.60;99.90
10583;DHT22;33679;51.218;6.786;2023-12-20T12:04:32;10.50;99.90
10583;DHT22;33679;51.218;6.786;2023-12-20T12:07:06;10.50;99.90
10583;DHT22;33679;51.218;6.786;2023-12-20T12:09:40;10.60;99.90
10583;DHT22;33679;51.218;6.786;2023-12-20T12:12:18;10.60;99.90
10583;DHT22;33679;51.218;6.786;2023-12-20T12:14:55;10.60;99.90
10583;DHT22;33679;51.218;6.786;2023-12-20T12:17:29;10.80;99.90
10583;DHT22;33679;51.218;6.786;2023-12-20T12:20:07;10.70;99.90
10583;DHT22;33679;51.218;6.786;2023-12-20T12:22:41;10.60;99.90
10583;DHT22;33679;51.218;6.786;2023-12-20T12:25:14;10.60;99.90
10583;DHT22;33679;51.218;6.786;2023-12-20T12:27:52;10.60;99.90
10583;DHT22;33679;51.218;6.786;2023-12-20T12:30:27;10.60;99.90
10583;DHT22;33679;51.218;6.786;2023-12-20T12:33:02;10.60;99.90
10583;DHT22;33679;51.218;6.786;2023-12-20T12:35:37;10.70;99.90
10583;DHT22;33679;51.218;6.786;2023-12-20T12:38:11;10.60;99.90
10583;DHT22;33679;51.218;6.786;2023-12-20T12:40:44;10.60;99.90
10583;DHT22;33679;51.218;6.786;2023-12-20T12:43:19;10.60;99.90
10583;DHT22;33679;51.218;6.786;2023-12-20T12:45:54;10.60;99.90
10583;DHT22;33679;51.218;6.786;2023-12-20T12:48:41;10.50;99.90
10583;DHT22;33679;51.218;6.786;2023-12-20T12:51:26;10.50;99.90
10583;DHT22;33679;51.218;6.786;2023-12-20T12:54:01;10.50;99.90
10583;DHT22;33679;51.218;6.786;2023-12-20T12:56:34;10.60;99.90
10583;DHT22;33679;51.218;6.786;2023-12-20T12:59:11;10.60;99.90
10583;DHT22;33679;51.218;6.786;2023-12-20T13:01:44;10.60;99.90
10583;DHT22;33679;51.218;6.786;2023-12-20T13:04:16;10.50;99.90
10583;DHT22;33679;51.218;6.786;2023-12-20T13:06:50;10.50;99.90
10583;DHT22;33679;51.218;6.786;2023-12-20T13:09:23;10.50;99.90
10583;DHT22;33679;51.218;6.786;2023-12-20T13:11:55;10.50;99.90
10583;DHT22;33679;51.218;6.786;2023-12-20T13:14:32;10.60;99.90
10583;DHT22;33679;51.218;6.786;2023-12-20T13:17:05;10.60;99.90
10583;DHT22;33679;51.218;6.786;2023-12-20T13:19:40;10.50;99.90
10583;DHT22;33679;51.218;6.786;2023-12-20T13:22:13;10.50;99.90
10583;DHT22;33679;51.218;6.786;2023-12-20T13:24:45;10.50;99.90
10583;DHT22;33679;51.218;6.786;2023-12-20T13:27:17;10.50;99.90
10583;DHT22;33679;51.218;6.786;2023-12-20T13:29:52;10.40;99.90
10583;DHT22;33679;51.218;6.786;2023-12-20T13:32:27;10.50;99.90
10583;DHT22;33679;51.218;6.786;2023-12-20T13:35:02;10.50;99.90
10583;DHT22;33679;51.218;6.786;2023-12-20T13:37:38;10.60;99.90
10583;DHT22;33679;51.218;6.786;2023-12-20T13:40:13;10.60;99.90
10583;DHT22;33679;51.218;6.786;2023-12-20T13:42:49;10.60;99.90
10583;DHT22;33679;51.218;6.786;2023-12-20T13:45:23;10.60;99.90
10583;DHT22;33679;51.218;6.786;2023-12-20T13:47:58;10.60;99.90
10583;DHT22;33679;51.218;6.786;2023-12-20T13:50:31;10.50;99.90
10583;DHT22;33679;51.218;6.786;2023-12-20T13:53:04;10.40;99.90
10583;DHT22;33679;51.218;6.786;2023-12-20T13:55:38;10.40;99.90
10583;DHT22;33679;51.218;6.786;2023-12-20T13:58:12;10.40;99.90
10583;DHT22;33679;51.218;6.786;2023-12-20T14:00:46;10.40;99.90
10583;DHT22;33679;51.218;6.786;2023-12-20T14:03:20;10.30;99.90
10583;DHT22;33679;51.218;6.786;2023-12-20T14:05:55;10.30;99.90
10583;DHT22;33679;51.218;6.786;2023-12-20T14:08:29;10.30;99.90
10583;DHT22;33679;51.218;6.786;2023-12-20T14:11:03;10.40;99.90
10583;DHT22;33679;51.218;6.786;2023-12-20T14:13:37;10.30;99.90
10583;DHT22;33679;51.218;6.786;2023-12-20T14:16:11;10.40;99.90
10583;DHT22;33679;51.218;6.786;2023-12-20T14:18:44;10.40;99.90
10583;DHT22;33679;51.218;6.786;2023-12-20T14:21:28;10.40;99.90
10583;DHT22;33679;51.218;6.786;2023-12-20T14:24:05;10.50;99.90
10583;DHT22;33679;51.218;6.786;2023-12-20T14:26:43;10.50;99.90
10583;DHT22;33679;51.218;6.786;2023-12-20T14:29:15;10.40;99.90
10583;DHT22;33679;51.218;6.786;2023-12-20T14:31:51;10.40;99.90
10583;DHT22;33679;51.218;6.786;2023-12-20T14:34:24;10.50;99.90
10583;DHT22;33679;51.218;6.786;2023-12-20T14:36:56;10.50;99.90
10583;DHT22;33679;51.218;6.786;2023-12-20T14:39:31;10.50;99.90
10583;DHT22;33679;51.218;6.786;2023-12-20T14:42:04;10.60;99.90
10583;DHT22;33679;51.218;6.786;2023-12-20T14:44:36;10.60;99.90
10583;DHT22;33679;51.218;6.786;2023-12-20T14:47:10;10.60;99.90
10583;DHT22;33679;51.218;6.786;2023-12-20T14:49:45;10.60;99.90
10583;DHT22;33679;51.218;6.786;2023-12-20T14:52:21;10.60;99.90
10583;DHT22;33679;51.218;6.786;2023-12-20T14:54:56;10.70;99.90
10583;DHT22;33679;51.218;6.786;2023-12-20T14:57:32;10.60;99.90
10583;DHT22;33679;51.218;6.786;2023-12-20T15:00:06;10.60;99.90
10583;DHT22;33679;51.218;6.786;2023-12-20T15:02:40;10.70;99.90
10583;DHT22;33679;51.218;6.786;2023-12-20T15:05:16;10.70;99.90
10583;DHT22;33679;51.218;6.786;2023-12-20T15:12:31;10.90;99.90
10583;DHT22;33679;51.218;6.786;2023-12-20T15:15:55;10.90;99.90
10583;DHT22;33679;51.218;6.786;2023-12-20T15:18:30;11.00;99.90
10583;DHT22;33679;51.218;6.786;2023-12-20T15:21:03;10.90;99.90
10583;DHT22;33679;51.218;6.786;2023-12-20T15:23:41;10.80;99.90
10583;DHT22;33679;51.218;6.786;2023-12-20T15:26:25;10.80;99.90
10583;DHT22;33679;51.218;6.786;2023-12-20T15:29:01;10.80;99.90
10583;DHT22;33679;51.218;6.786;2023-12-20T15:31:34;10.80;99.90
10583;DHT22;33679;51.218;6.786;2023-12-20T15:34:12;10.80;99.90
10583;DHT22;33679;51.218;6.786;2023-12-20T15:36:46;10.80;99.90
10583;DHT22;33679;51.218;6.786;2023-12-20T15:39:27;10.80;99.90
10583;DHT22;33679;51.218;6.786;2023-12-20T15:42:05;10.80;99.90
10583;DHT22;33679;51.218;6.786;2023-12-20T15:44:51;10.80;99.90
10583;DHT22;33679;51.218;6.786;2023-12-20T15:47:35;10.70;99.90
10583;DHT22;33679;51.218;6.786;2023-12-20T15:50:13;10.70;99.90
10583;DHT22;33679;51.218;6.786;2023-12-20T15:52:49;10.80;99.90
10583;DHT22;33679;51.218;6.786;2023-12-20T15:55:21;10.90;99.90
10583;DHT22;33679;51.218;6.786;2023-12-20T15:57:54;10.90;99.90
10583;DHT22;33679;51.218;6.786;2023-12-20T16:00:28;10.90;99.90
10583;DHT22;33679;51.218;6.786;2023-12-20T16:03:02;10.80;99.90
10583;DHT22;33679;51.218;6.786;2023-12-20T16:05:36;10.80;99.90
10583;DHT22;33679;51.218;6.786;2023-12-20T16:08:09;10.80;99.90
10583;DHT22;33679;51.218;6.786;2023-12-20T16:10:46;10.90;99.90
10583;DHT22;33679;51.218;6.786;2023-12-20T16:13:21;10.90;99.90
10583;DHT22;33679;51.218;6.786;2023-12-20T16:16:18;10.90;99.90
10583;DHT22;33679;51.218;6.786;2023-12-20T16:19:04;10.90;99.90
10583;DHT22;33679;51.218;6.786;2023-12-20T16:21:43;11.00;99.90
10583;DHT22;33679;51.218;6.786;2023-12-20T16:24:16;11.00;99.90
10583;DHT22;33679;51.218;6.786;2023-12-20T16:26:56;11.00;99.90